Terminal Aerodrome Forecast
Issued by NWS

Home | Current Version | Previous Version | Text Only | Print | Product List | Glossary Off
Versions: 1 2 3 4 5 6 7 8 9 10 11 12 13 14 15

000
FTUS44 KTSA 270900 AAA
TAFXNA
TAF AMD
KXNA 270902Z 2709/2806 VRB11KT P6SM VCTS BKN035CB
     FM271100 08011KT P6SM BKN035
     FM271400 09006KT 5SM -TSRA BR OVC035CB
     FM280000 06006KT P6SM -RA OVC100=

USA.gov is the U.S. government's official web portal to all federal, state and local government web resources and services.